Flight Track Log - Related Links

Times and Time Zones

All times are in EDT time to prevent confusion due to time zone crossing. See the BER7249 flight status page for this flight to view local times or setup timezone preferences in your user account.

Time Position Orientation Groundspeed Altitude Reporting Facility
EDT Latitude Longitude Course Direction KTS MPH feet Rate Location/Type
Tue 05:53:59 PM 40.6500 -73.7500 72° East 169 194 1,500  Level New York TRACON
Tue 05:54:59 PM 40.6667 -73.6833 49° Northeast 190 219 2,700 1,200 Climbing New York TRACON
Tue 05:55:59 PM 40.7000 -73.6333 37° Northeast 249 287 3,900 1,900 Climbing New York TRACON
Tue 05:56:59 PM 40.7667 -73.5667 23° Northeast 274 315 6,500 2,134 Climbing New York TRACON
Tue 05:59:13 PM 40.9117 -73.4836 12° North 277 319 10,800 1,825 Climbing Boston Center
Tue 06:00:13 PM 41.0183 -73.4525 12° North 318 366 12,400 1,900 Climbing Boston Center
Tue 06:01:13 PM 41.1103 -73.4264 13° North 363 418 14,600 2,174 Climbing Boston Center
Tue 06:02:42 PM 41.2773 -73.3738 12° North 385 443 17,800 2,066 Climbing FlightAware ADS-B
Tue 06:03:15 PM 41.3345 -73.3570 18° North 390 449 18,800 1,884 Climbing FlightAware ADS-B
Tue 06:04:08 PM 41.4266 -73.3176 24° Northeast 398 458 20,500 1,905 Climbing FlightAware ADS-B
Tue 06:04:18 PM 41.4444 -73.3068 25° Northeast 404 465 20,800 1,600 Climbing FlightAware ADS-B
Tue 06:04:38 PM 41.4776 -73.2862 North 404 465 21,300 1,200 Climbing FlightAware ADS-B
Tue 06:05:13 PM 41.5261 -73.2803 359° North 384 442 21,900 1,389 Climbing Boston Center
Tue 06:06:13 PM 41.6325 -73.2817 359° North 379 436 23,500 1,450 Climbing Boston Center
Tue 06:07:13 PM 41.7450 -73.2831 North 384 442 24,800 1,300 Climbing Boston Center
Tue 06:08:13 PM 41.8597 -73.2792 360° North 395 455 26,100 950 Climbing Boston Center
Tue 06:09:13 PM 41.9783 -73.2778 360° North 409 471 26,700 850 Climbing Boston Center
Tue 06:10:13 PM 42.1033 -73.2767 27° Northeast 427 491 27,800 1,000 Climbing Boston Center
Tue 06:11:13 PM 42.2144 -73.1997 53° Northeast 433 498 28,700 850 Climbing Boston Center
Tue 06:12:13 PM 42.2967 -73.0519 50° Northeast 443 510 29,500 750 Climbing Boston Center
Tue 06:13:13 PM 42.3892 -72.9011 50° Northeast 477 549 30,200 1,050 Climbing Boston Center
Tue 06:14:13 PM 42.4769 -72.7608 50° Northeast 484 557 31,600 1,200 Climbing Boston Center
Tue 06:15:13 PM 42.5650 -72.6206 49° Northeast 489 563 32,600 900 Climbing Boston Center
Tue 06:16:13 PM 42.6525 -72.4825 50° Northeast 481 554 33,400 800 Climbing Boston Center
Tue 06:17:13 PM 42.7442 -72.3325 50° Northeast 475 547 34,200 750 Climbing Boston Center
Tue 06:18:13 PM 42.8233 -72.2022 50° Northeast 481 554 34,900 700 Climbing Boston Center
Tue 06:19:13 PM 42.9103 -72.0603 51° Northeast 481 554 35,600 600 Climbing Boston Center
Tue 06:20:13 PM 42.9953 -71.9178 50° Northeast 481 554 36,100 550 Climbing Boston Center
Tue 06:21:13 PM 43.0819 -71.7750 50° Northeast 481 554 36,700 450 Climbing Boston Center
Tue 06:22:13 PM 43.1667 -71.6344 50° Northeast 481 554 37,000 150 Climbing Boston Center
Tue 06:23:13 PM 43.2633 -71.4764 51° Northeast 481 554 37,000  Level Boston Center
Tue 06:24:13 PM 43.3453 -71.3353 50° Northeast 481 554 37,000  Level Boston Center
Tue 06:25:13 PM 43.4233 -71.2053 52° Northeast 481 554 37,000  Level Boston Center
Tue 06:26:13 PM 43.5172 -71.0372 51° Northeast 487 560 37,000  Level Boston Center
Tue 06:27:13 PM 43.6028 -70.8919 52° Northeast 487 560 37,000  Level Boston Center
Tue 06:28:13 PM 43.6761 -70.7608 52° Northeast 487 560 37,000  Level Boston Center
Tue 06:29:13 PM 43.7611 -70.6119 52° Northeast 487 560 37,000  Level Boston Center
Tue 06:30:13 PM 43.8483 -70.4594 51° Northeast 493 567 37,000  Level Boston Center
Tue 06:31:13 PM 43.9333 -70.3153 52° Northeast 493 567 37,000  Level Boston Center
Tue 06:32:13 PM 44.0200 -70.1622 51° Northeast 498 573 37,000 50 Level Boston Center
Tue 06:33:13 PM 44.1064 -70.0114 52° Northeast 498 573 37,100  Climbing Boston Center
Tue 06:34:13 PM 44.1928 -69.8572 53° Northeast 498 573 37,000 -50 Descending Boston Center
Tue 06:35:13 PM 44.2767 -69.7028 52° Northeast 498 573 37,000  Level Boston Center
Tue 06:36:13 PM 44.3625 -69.5506 51° Northeast 498 573 37,000  Level Boston Center
Tue 06:37:13 PM 44.4483 -69.4011 53° Northeast 498 573 37,000  Level Boston Center
Tue 06:38:13 PM 44.5317 -69.2453 51° Northeast 498 573 37,000  Level Boston Center
Tue 06:39:13 PM 44.6189 -69.0917 52° Northeast 498 573 37,000  Level Boston Center
Tue 06:40:13 PM 44.7042 -68.9381 53° Northeast 498 573 37,000  Level Boston Center
Tue 06:41:13 PM 44.7867 -68.7808 52° Northeast 498 573 37,000  Level Boston Center
Tue 06:42:13 PM 44.8714 -68.6292 53° Northeast 498 573 37,000  Level Boston Center
Tue 06:43:13 PM 44.9536 -68.4739 53° Northeast 498 573 37,000  Level Boston Center
Tue 06:44:13 PM 45.0378 -68.3156 53° Northeast 498 573 37,000  Level Boston Center
Tue 06:45:13 PM 45.1217 -68.1594 54° Northeast 498 573 37,000  Level Boston Center
Tue 06:46:13 PM 45.2033 -68.0000 58° Northeast 498 573 37,000  Level Boston Center
Tue 06:47:15 PM 45.2833 -67.8167 46° Northeast 500 575 37,000  Level Moncton Center
Tue 06:48:15 PM 45.3833 -67.6667 39° Northeast 500 575 37,000  Level Moncton Center
Tue 06:49:15 PM 45.4833 -67.5500 43° Northeast 500 575 37,000  Level Moncton Center
Tue 06:50:15 PM 45.5833 -67.4167 51° Northeast 500 575 37,000  Level Moncton Center
Tue 06:51:15 PM 45.6667 -67.2667 39° Northeast 500 575 37,000  Level Moncton Center
Tue 06:52:15 PM 45.7833 -67.1333 43° Northeast 500 575 37,000  Level Moncton Center
Tue 06:53:15 PM 45.8833 -67.0000 39° Northeast 490 564 37,000  Level Moncton Center
Tue 06:54:15 PM 45.9833 -66.8833 46° Northeast 490 564 37,000  Level Moncton Center
Tue 06:55:15 PM 46.0833 -66.7333 48° Northeast 490 564 37,000  Level Moncton Center
Tue 06:56:15 PM 46.1667 -66.6000 42° Northeast 500 575 37,000  Level Moncton Center
Tue 06:57:15 PM 46.2833 -66.4500 43° Northeast 500 575 37,000  Level Moncton Center
Tue 06:58:15 PM 46.3833 -66.3167 46° Northeast 500 575 37,000  Level Moncton Center
Tue 06:59:15 PM 46.4833 -66.1667 42° Northeast 490 564 37,000  Level Moncton Center
Tue 07:00:15 PM 46.5833 -66.0333 44° Northeast 500 575 37,000  Level Moncton Center
Tue 07:01:15 PM 46.6667 -65.9167 46° Northeast 500 575 37,000  Level Moncton Center
Tue 07:02:15 PM 46.7667 -65.7667 46° Northeast 500 575 37,000  Level Moncton Center
Tue 07:03:15 PM 46.8667 -65.6167 38° Northeast 490 564 37,000  Level Moncton Center
Tue 07:04:15 PM 46.9833 -65.4833 46° Northeast 490 564 37,000  Level Moncton Center
Tue 07:05:15 PM 47.0833 -65.3333 46° Northeast 490 564 37,000  Level Moncton Center
Tue 07:06:15 PM 47.1833 -65.1833 44° Northeast 490 564 37,000  Level Moncton Center
Tue 07:07:15 PM 47.2667 -65.0667 45° Northeast 490 564 37,000  Level Moncton Center
Tue 07:08:15 PM 47.3667 -64.9167 45° Northeast 490 564 37,000  Level Moncton Center
Tue 07:09:15 PM 47.4667 -64.7667 43° Northeast 490 564 37,000  Level Moncton Center
Tue 07:10:15 PM 47.5500 -64.6500 45° Northeast 490 564 37,000  Level Moncton Center
Tue 07:11:15 PM 47.6500 -64.5000 45° Northeast 480 552 37,000  Level Moncton Center
Tue 07:12:15 PM 47.7500 -64.3500 45° Northeast 490 564 37,000  Level Moncton Center
Tue 07:13:15 PM 47.8500 -64.2000 47° Northeast 480 552 37,000  Level Moncton Center
Tue 07:14:15 PM 47.9333 -64.0667 45° Northeast 490 564 37,000  Level Moncton Center
Tue 07:15:15 PM 48.0333 -63.9167 45° Northeast 480 552 37,000  Level Moncton Center
Tue 07:16:15 PM 48.1333 -63.7667 43° Northeast 480 552 37,000  Level Moncton Center
Tue 07:17:15 PM 48.2167 -63.6500 48° Northeast 480 552 37,000  Level Moncton Center
Tue 07:18:15 PM 48.3167 -63.4833 45° Northeast 480 552 37,000  Level Moncton Center
Tue 07:19:15 PM 48.4167 -63.3333 48° Northeast 480 552 37,000  Level Moncton Center
Tue 07:19:55 PM 48.4667 -63.2500 45° Northeast 480 552 37,000  Level Gander Center
Tue 07:20:55 PM 48.5667 -63.1000 50° Northeast 490 564 37,000  Level Gander Center
Tue 07:21:55 PM 48.6500 -62.9500 45° Northeast 490 564 37,000  Level Gander Center
Tue 07:22:55 PM 48.7500 -62.8000 50° Northeast 480 552 37,000  Level Gander Center
Tue 07:23:55 PM 48.8333 -62.6500 40° Northeast 490 564 37,000  Level Gander Center
Tue 07:24:55 PM 48.9500 -62.5000 50° Northeast 470 541 37,000  Level Gander Center
Tue 07:25:55 PM 49.0333 -62.3500 50° Northeast 480 552 37,000  Level Gander Center
Tue 07:26:55 PM 49.1167 -62.2000 44° Northeast 480 552 37,000  Level Gander Center
Tue 07:27:55 PM 49.2167 -62.0500 50° Northeast 480 552 37,000  Level Gander Center
Tue 07:28:55 PM 49.3000 -61.9000 46° Northeast 480 552 37,000 250 Level Gander Center
Tue 07:29:55 PM 49.3833 -61.7667 44° Northeast 480 552 37,500 500 Climbing Gander Center
Tue 07:30:55 PM 49.4833 -61.6167 49° Northeast 470 541 38,000 400 Climbing Gander Center
Tue 07:31:55 PM 49.5667 -61.4667 55° Northeast 470 541 38,300 400 Climbing Gander Center
Tue 07:32:55 PM 49.6500 -61.2833 49° Northeast 470 541 38,800 350 Climbing Gander Center
Tue 07:33:55 PM 49.7333 -61.1333 52° Northeast 480 552 39,000 100 Climbing Gander Center
Tue 07:34:55 PM 49.8167 -60.9667 49° Northeast 470 541 39,000  Level Gander Center
Tue 07:35:55 PM 49.9000 -60.8167 46° Northeast 480 552 39,000  Level Gander Center
Tue 07:36:55 PM 49.9833 -60.6833 55° Northeast 470 541 39,000  Level Gander Center
Tue 07:37:55 PM 50.0667 -60.5000 49° Northeast 470 541 39,000  Level Gander Center
Tue 07:38:55 PM 50.1500 -60.3500 52° Northeast 470 541 39,000  Level Gander Center
Tue 07:39:55 PM 50.2333 -60.1833 49° Northeast 470 541 39,000  Level Gander Center
Tue 07:40:55 PM 50.3167 -60.0333 46° Northeast 470 541 39,000  Level Gander Center
Tue 07:41:55 PM 50.4000 -59.9000 57° Northeast 470 541 39,000  Level Gander Center
Tue 07:42:55 PM 50.4833 -59.7000 52° Northeast 460 529 39,000  Level Gander Center
Tue 07:43:55 PM 50.5500 -59.5667 49° Northeast 460 529 39,000  Level Gander Center
Tue 07:44:55 PM 50.6333 -59.4167 52° Northeast 460 529 39,000 -50 Level Gander Center
Tue 07:45:55 PM 50.7167 -59.2500 52° Northeast 460 529 38,900 -50 Descending Gander Center
Tue 07:46:55 PM 50.8000 -59.0833 52° Northeast 470 541 38,900 50 Level Gander Center
Tue 07:47:55 PM 50.8833 -58.9167 49° Northeast 470 541 39,000 50 Climbing Gander Center
Tue 07:48:55 PM 50.9667 -58.7667 57° Northeast 470 541 39,000 -50 Level Gander Center
Tue 07:49:55 PM 51.0333 -58.6000 51° Northeast 470 541 38,900 -50 Descending Gander Center
Tue 07:50:55 PM 51.1167 -58.4333 51° Northeast 460 529 38,900  Level Gander Center
Tue 07:51:55 PM 51.2000 -58.2667 51° Northeast 470 541 38,900 50 Level Gander Center
Tue 07:52:55 PM 51.2833 -58.1000 51° Northeast 470 541 39,000  Climbing Gander Center
Tue 07:53:55 PM 51.3667 -57.9333 57° Northeast 470 541 38,900  Descending Gander Center
Tue 07:54:55 PM 51.4333 -57.7667 51° Northeast 470 541 39,000  Climbing Gander Center
Tue 07:55:55 PM 51.5167 -57.6000 51° Northeast 470 541 38,900 -50 Descending Gander Center
Tue 07:56:55 PM 51.6000 -57.4333 57° Northeast 460 529 38,900 50 Level Gander Center
Tue 07:57:55 PM 51.6667 -57.2667 51° Northeast 470 541 39,000 50 Climbing Gander Center
Tue 07:58:55 PM 51.7500 -57.1000 54° Northeast 470 541 39,000  Level Gander Center
Tue 07:59:55 PM 51.8333 -56.9167 57° Northeast 460 529 39,000  Level Gander Center
Tue 08:00:55 PM 51.9000 -56.7500 51° Northeast 470 541 39,000  Level Gander Center
Tue 08:01:55 PM 51.9833 -56.5833 51° Northeast 470 541 39,000  Level Gander Center
Tue 08:02:55 PM 52.0667 -56.4167 59° Northeast 480 552 39,000  Level Gander Center
Tue 08:03:55 PM 52.1333 -56.2333 51° Northeast 470 541 39,000  Level Gander Center
Tue 08:04:55 PM 52.2167 -56.0667 57° Northeast 470 541 39,000  Level Gander Center
Tue 08:05:55 PM 52.2833 -55.9000 53° Northeast 470 541 39,000  Level Gander Center
Tue 08:06:55 PM 52.3667 -55.7167 57° Northeast 480 552 39,000  Level Gander Center
Tue 08:07:55 PM 52.4333 -55.5500 53° Northeast 480 552 39,000  Level Gander Center
Tue 08:08:55 PM 52.5167 -55.3667 57° Northeast 480 552 39,000  Level Gander Center
Tue 08:09:55 PM 52.5833 -55.2000 58° Northeast 470 541 39,000  Level Gander Center
Tue 08:10:55 PM 52.6667 -54.9833 50° Northeast 480 552 39,000  Level Gander Center
Tue 08:11:55 PM 52.7333 -54.8500 53° Northeast 480 552 39,000  Level Gander Center
Tue 08:12:55 PM 52.8333 -54.6333 59° Northeast 480 552 39,000  Level Gander Center
Tue 08:13:55 PM 52.9000 -54.4500 56° Northeast 480 552 39,000  Level Gander Center
Tue 08:14:55 PM 52.9667 -54.2833 53° Northeast 480 552 39,000  Level Gander Center
Tue 08:15:55 PM 53.0333 -54.1333 66° East 480 552 39,000  Level Gander Center
Tue 08:16:55 PM 53.0833 -53.9500 70° East 480 552 39,000  Level Gander Center
Tue 08:17:55 PM 53.1333 -53.7167 67° East 470 541 39,000  Level Gander Center
Tue 08:18:55 PM 53.1833 -53.5167 67° East 470 541 39,000  Level Gander Center
Tue 08:19:55 PM 53.2333 -53.3167 75° East 470 541 39,000  Level Gander Center
Tue 08:20:55 PM 53.2667 -53.1000 67° East 470 541 39,000  Level Gander Center
Tue 08:21:55 PM 53.3167 -52.9000 61° Northeast 470 541 39,000  Level Gander Center
Tue 08:22:55 PM 53.3833 -52.7000 69° East 470 541 39,000  Level Gander Center
Tue 08:23:55 PM 53.4333 -52.4833 67° East 480 552 39,000  Level Gander Center
Tue 08:24:55 PM 53.4833 -52.2833 75° East 480 552 39,000  Level Gander Center
Tue 08:25:55 PM 53.5167 -52.0667 67° East 480 552 39,000  Level Gander Center
Tue 08:26:55 PM 53.5667 -51.8667 69° East 490 564 39,000  Level Gander Center
Tue 08:27:55 PM 53.6167 -51.6500 70° East 480 552 39,000  Level Gander Center
Tue 08:28:55 PM 53.6667 -51.4167 75° East 490 564 39,000  Level Gander Center
Tue 08:29:55 PM 53.7000 -51.2000 67° East 490 564 39,000  Level Gander Center
Tue 08:30:55 PM 53.7500 -51.0000 69° East 490 564 39,000  Level Gander Center
Tue 08:31:55 PM 53.8000 -50.7833 69° East 490 564 39,000  Level Gander Center
Tue 08:32:55 PM 53.8500 -50.5667 73° East 490 564 39,000  Level Gander Center
Tue 08:35:55 PM 53.9667 -49.9167 75° East 490 564 39,000  Level Gander Center
Tue 08:36:55 PM 54.0000 -49.7000 76° East 490 564 39,000  Level Gander Center
Tue 08:44:15 PM 54.2158 -48.1509 77° East  Level FlightAware Approximate
Tue 08:45:15 PM 54.2437 -47.9384 77° East  Level FlightAware Approximate
Tue 08:46:15 PM 54.2712 -47.7256 69° East  Level FlightAware Approximate
Tue 08:47:15 PM 54.3153 -47.5248 76° East  Level FlightAware Approximate
Tue 08:48:15 PM 54.3464 -47.3131 76° East  Level FlightAware Approximate
Tue 08:49:15 PM 54.3771 -47.1011 76° East  Level FlightAware Approximate
Tue 08:50:15 PM 54.4074 -46.8888 76° East  Level FlightAware Approximate
Tue 08:51:15 PM 54.4374 -46.6762 76° East  Level FlightAware Approximate
Tue 08:52:15 PM 54.4670 -46.4632 77° East  Level FlightAware Approximate
Tue 08:53:15 PM 54.4962 -46.2500 77° East  Level FlightAware Approximate
Tue 08:54:15 PM 54.5250 -46.0364 77° East  Level FlightAware Approximate
Tue 08:55:15 PM 54.5535 -45.8225 77° East  Level FlightAware Approximate
Tue 08:56:15 PM 54.5816 -45.6084 77° East  Level FlightAware Approximate
Tue 08:57:15 PM 54.6092 -45.3939 78° East  Level FlightAware Approximate
Tue 08:58:15 PM 54.6366 -45.1792 78° East  Level FlightAware Approximate
Tue 08:59:15 PM 54.6635 -44.9642 78° East  Level FlightAware Approximate
Tue 09:00:15 PM 54.6901 -44.7489 78° East  Level FlightAware Approximate
Tue 09:01:15 PM 54.7163 -44.5333 78° East  Level FlightAware Approximate
Tue 09:02:15 PM 54.7421 -44.3174 78° East  Level FlightAware Approximate
Tue 09:03:15 PM 54.7675 -44.1013 79° East  Level FlightAware Approximate
Tue 09:04:15 PM 54.7925 -43.8849 79° East  Level FlightAware Approximate
Tue 09:05:15 PM 54.8171 -43.6682 79° East  Level FlightAware Approximate
Tue 09:06:15 PM 54.8414 -43.4512 79° East  Level FlightAware Approximate
Tue 09:07:15 PM 54.8653 -43.2341 79° East  Level FlightAware Approximate
Tue 09:08:15 PM 54.8887 -43.0166 76° East  Level FlightAware Approximate
Tue 09:09:15 PM 54.9191 -42.8016 76° East  Level FlightAware Approximate
Tue 09:10:15 PM 54.9491 -42.5863 76° East  Level FlightAware Approximate
Tue 09:11:15 PM 54.9787 -42.3706 77° East  Level FlightAware Approximate
Tue 09:12:15 PM 55.0079 -42.1547 77° East  Level FlightAware Approximate
Tue 09:13:15 PM 55.0368 -41.9384 77° East  Level FlightAware Approximate
Tue 09:14:15 PM 55.0652 -41.7218 77° East  Level FlightAware Approximate
Tue 09:15:15 PM 55.0933 -41.5049 77° East  Level FlightAware Approximate
Tue 09:16:15 PM 55.1210 -41.2877 78° East  Level FlightAware Approximate
Tue 09:17:15 PM 55.1483 -41.0703 78° East  Level FlightAware Approximate
Tue 09:18:15 PM 55.1752 -40.8525 78° East  Level FlightAware Approximate
Tue 09:19:15 PM 55.2017 -40.6344 78° East  Level FlightAware Approximate
Tue 09:20:15 PM 55.2279 -40.4160 78° East  Level FlightAware Approximate
Tue 09:21:15 PM 55.2536 -40.1974 78° East  Level FlightAware Approximate
Tue 09:22:15 PM 55.2790 -39.9784 79° East  Level FlightAware Approximate
Tue 09:23:15 PM 55.3039 -39.7592 79° East  Level FlightAware Approximate
Tue 09:24:15 PM 55.3285 -39.5397 79° East  Level FlightAware Approximate
Tue 09:25:15 PM 55.3527 -39.3200 79° East  Level FlightAware Approximate
Tue 09:26:15 PM 55.3764 -39.0999 79° East  Level FlightAware Approximate
Tue 09:27:15 PM 55.3998 -38.8797 80° East  Level FlightAware Approximate
Tue 09:28:15 PM 55.4228 -38.6591 80° East  Level FlightAware Approximate
Tue 09:29:15 PM 55.4454 -38.4383 80° East  Level FlightAware Approximate
Tue 09:30:15 PM 55.4676 -38.2173 80° East  Level FlightAware Approximate
Tue 09:31:15 PM 55.4894 -37.9960 80° East  Level FlightAware Approximate
Tue 09:32:15 PM 55.5108 -37.7744 80° East  Level FlightAware Approximate
Tue 09:33:15 PM 55.5318 -37.5527 81° East  Level FlightAware Approximate
Tue 09:34:15 PM 55.5524 -37.3306 81° East  Level FlightAware Approximate
Tue 09:35:15 PM 55.5726 -37.1084 81° East  Level FlightAware Approximate
Tue 09:36:15 PM 55.5924 -36.8859 81° East  Level FlightAware Approximate
Tue 09:37:15 PM 55.6118 -36.6632 81° East  Level FlightAware Approximate
Tue 09:38:15 PM 55.6308 -36.4403 82° East  Level FlightAware Approximate
Tue 09:39:15 PM 55.6493 -36.2172 82° East  Level FlightAware Approximate
Tue 09:40:15 PM 55.6675 -35.9939 75° East  Level FlightAware Approximate
Tue 09:41:15 PM 55.7006 -35.7759 75° East  Level FlightAware Approximate
Tue 09:42:15 PM 55.7333 -35.5575 75° East  Level FlightAware Approximate
Tue 09:43:15 PM 55.7657 -35.3387 75° East  Level FlightAware Approximate
Tue 09:44:15 PM 55.7976 -35.1196 76° East  Level FlightAware Approximate
Tue 09:45:15 PM 55.8291 -34.9001 76° East  Level FlightAware Approximate
Tue 09:46:15 PM 55.8603 -34.6803 76° East  Level FlightAware Approximate
Tue 09:47:15 PM 55.8910 -34.4601 76° East  Level FlightAware Approximate
Tue 09:48:15 PM 55.9214 -34.2396 76° East  Level FlightAware Approximate
Tue 09:49:15 PM 55.9514 -34.0187 76° East  Level FlightAware Approximate
Tue 09:50:15 PM 55.9810 -33.7975 77° East  Level FlightAware Approximate
Tue 09:51:15 PM 56.0101 -33.5760 77° East  Level FlightAware Approximate
Tue 09:52:15 PM 56.0389 -33.3541 77° East  Level FlightAware Approximate
Tue 09:53:15 PM 56.0673 -33.1319 77° East  Level FlightAware Approximate
Tue 09:54:15 PM 56.0953 -32.9093 77° East  Level FlightAware Approximate
Tue 09:55:15 PM 56.1229 -32.6865 78° East  Level FlightAware Approximate
Tue 09:56:15 PM 56.1501 -32.4633 78° East  Level FlightAware Approximate
Tue 09:57:15 PM 56.1768 -32.2398 78° East  Level FlightAware Approximate
Tue 09:58:15 PM 56.2032 -32.0160 78° East  Level FlightAware Approximate
Tue 09:59:15 PM 56.2292 -31.7919 78° East  Level FlightAware Approximate
Tue 10:00:15 PM 56.2547 -31.5675 79° East  Level FlightAware Approximate
Tue 10:01:15 PM 56.2799 -31.3428 79° East  Level FlightAware Approximate
Tue 10:02:15 PM 56.3046 -31.1178 79° East  Level FlightAware Approximate
Tue 10:03:15 PM 56.3290 -30.8925 79° East  Level FlightAware Approximate
Tue 10:04:15 PM 56.3529 -30.6670 79° East  Level FlightAware Approximate
Tue 10:05:15 PM 56.3764 -30.4411 81° East  Level FlightAware Approximate
Tue 10:06:15 PM 56.3965 -30.2141 81° East  Level FlightAware Approximate
Tue 10:07:15 PM 56.4161 -29.9868 81° East  Level FlightAware Approximate
Tue 10:08:15 PM 56.4354 -29.7592 81° East  Level FlightAware Approximate
Tue 10:09:15 PM 56.4542 -29.5315 82° East  Level FlightAware Approximate
Tue 10:10:15 PM 56.4726 -29.3035 82° East  Level FlightAware Approximate
Tue 10:11:15 PM 56.4906 -29.0753 82° East  Level FlightAware Approximate
Tue 10:12:15 PM 56.5081 -28.8469 82° East  Level FlightAware Approximate
Tue 10:13:15 PM 56.5253 -28.6182 82° East  Level FlightAware Approximate
Tue 10:14:15 PM 56.5420 -28.3894 83° East  Level FlightAware Approximate
Tue 10:15:15 PM 56.5583 -28.1604 83° East  Level FlightAware Approximate
Tue 10:16:15 PM 56.5742 -27.9311 83° East  Level FlightAware Approximate
Tue 10:17:15 PM 56.5896 -27.7017 83° East  Level FlightAware Approximate
Tue 10:18:15 PM 56.6047 -27.4721 83° East  Level FlightAware Approximate
Tue 10:19:15 PM 56.6193 -27.2423 84° East  Level FlightAware Approximate
Tue 10:20:15 PM 56.6335 -27.0124 84° East  Level FlightAware Approximate
Tue 10:21:15 PM 56.6473 -26.7823 84° East  Level FlightAware Approximate
Tue 10:22:15 PM 56.6606 -26.5520 84° East  Level FlightAware Approximate
Tue 10:23:15 PM 56.6735 -26.3215 84° East  Level FlightAware Approximate
Tue 10:24:15 PM 56.6860 -26.0909 84° East  Level FlightAware Approximate
Tue 10:25:15 PM 56.6981 -25.8601 85° East  Level FlightAware Approximate
Tue 10:26:15 PM 56.7097 -25.6292 85° East  Level FlightAware Approximate
Tue 10:27:15 PM 56.7209 -25.3982 85° East  Level FlightAware Approximate
Tue 10:28:15 PM 56.7317 -25.1670 85° East  Level FlightAware Approximate
Tue 10:29:15 PM 56.7420 -24.9357 85° East  Level FlightAware Approximate
Tue 10:30:15 PM 56.7520 -24.7043 86° East  Level FlightAware Approximate
Tue 10:31:15 PM 56.7615 -24.4727 86° East  Level FlightAware Approximate
Tue 10:32:15 PM 56.7705 -24.2411 86° East  Level FlightAware Approximate
Tue 10:33:15 PM 56.7792 -24.0093 86° East  Level FlightAware Approximate
Tue 10:34:15 PM 56.7874 -23.7774 86° East  Level FlightAware Approximate
Tue 10:35:15 PM 56.7952 -23.5454 87° East  Level FlightAware Approximate
Tue 10:36:15 PM 56.8025 -23.3134 87° East  Level FlightAware Approximate
Tue 10:37:15 PM 56.8094 -23.0812 87° East  Level FlightAware Approximate
Tue 10:38:15 PM 56.8159 -22.8489 87° East  Level FlightAware Approximate
Tue 10:39:15 PM 56.8220 -22.6166 87° East  Level FlightAware Approximate
Tue 10:40:15 PM 56.8276 -22.3842 88° East  Level FlightAware Approximate
Tue 10:41:15 PM 56.8328 -22.1518 88° East  Level FlightAware Approximate
Tue 10:42:15 PM 56.8375 -21.9192 88° East  Level FlightAware Approximate
Tue 10:43:15 PM 56.8419 -21.6867 88° East  Level FlightAware Approximate
Tue 10:44:15 PM 56.8457 -21.4540 88° East  Level FlightAware Approximate
Tue 10:45:15 PM 56.8492 -21.2213 89° East  Level FlightAware Approximate
Tue 10:46:15 PM 56.8522 -20.9886 89° East  Level FlightAware Approximate
Tue 10:47:15 PM 56.8548 -20.7559 89° East  Level FlightAware Approximate
Tue 10:48:15 PM 56.8570 -20.5231 89° East  Level FlightAware Approximate
Tue 10:49:15 PM 56.8587 -20.2903 89° East  Level FlightAware Approximate
Tue 10:50:15 PM 56.8600 -20.0575 90° East  Level FlightAware Approximate
Tue 10:51:15 PM 56.8598 -19.8246 90° East  Level FlightAware Approximate
Tue 10:52:15 PM 56.8592 -19.5918 90° East  Level FlightAware Approximate
Tue 10:53:15 PM 56.8582 -19.3589 91° East  Level FlightAware Approximate
Tue 10:54:15 PM 56.8567 -19.1261 91° East  Level FlightAware Approximate
Tue 10:55:15 PM 56.8547 -18.8934 91° East  Level FlightAware Approximate
Tue 10:56:15 PM 56.8524 -18.6606 91° East  Level FlightAware Approximate
Tue 10:57:15 PM 56.8496 -18.4279 91° East  Level FlightAware Approximate
Tue 10:58:15 PM 56.8464 -18.1952 92° East  Level FlightAware Approximate
Tue 10:59:15 PM 56.8427 -17.9625 92° East  Level FlightAware Approximate
Tue 11:00:15 PM 56.8386 -17.7299 92° East  Level FlightAware Approximate
Tue 11:01:15 PM 56.8341 -17.4974 92° East  Level FlightAware Approximate
Tue 11:02:15 PM 56.8291 -17.2649 92° East  Level FlightAware Approximate
Tue 11:03:15 PM 56.8237 -17.0324 93° East  Level FlightAware Approximate
Tue 11:04:15 PM 56.8179 -16.8001 93° East  Level FlightAware Approximate
Tue 11:05:15 PM 56.8117 -16.5678 93° East  Level FlightAware Approximate
Tue 11:06:15 PM 56.8050 -16.3356 93° East  Level FlightAware Approximate
Tue 11:07:15 PM 56.7979 -16.1035 93° East  Level FlightAware Approximate
Tue 11:08:15 PM 56.7903 -15.8715 93° East  Level FlightAware Approximate
Tue 11:09:15 PM 56.7823 -15.6395 94° East  Level FlightAware Approximate
Tue 11:10:15 PM 56.7739 -15.4077 94° East  Level FlightAware Approximate
Tue 11:11:15 PM 56.7651 -15.1760 94° East  Level FlightAware Approximate
Tue 11:12:15 PM 56.7559 -14.9444 94° East  Level FlightAware Approximate
Tue 11:13:15 PM 56.7462 -14.7129 94° East  Level FlightAware Approximate
Tue 11:14:15 PM 56.7360 -14.4815 95° East  Level FlightAware Approximate
Tue 11:15:15 PM 56.7255 -14.2503 95° East  Level FlightAware Approximate
Tue 11:16:15 PM 56.7145 -14.0192 95° East  Level FlightAware Approximate
Tue 11:17:15 PM 56.7031 -13.7882 95° East  Level FlightAware Approximate
Tue 11:18:15 PM 56.6913 -13.5574 95° East  Level FlightAware Approximate
Tue 11:19:15 PM 56.6790 -13.3267 96° East  Level FlightAware Approximate
Tue 11:20:15 PM 56.6663 -13.0962 96° East  Level FlightAware Approximate
Tue 11:21:15 PM 56.6532 -12.8658 96° East  Level FlightAware Approximate
Tue 11:22:15 PM 56.6397 -12.6356 96° East  Level FlightAware Approximate
Tue 11:23:15 PM 56.6257 -12.4055 96° East  Level FlightAware Approximate
Tue 11:24:15 PM 56.6113 -12.1757 97° East  Level FlightAware Approximate
Tue 11:25:15 PM 56.5965 -11.9460 97° East  Level FlightAware Approximate
Tue 11:26:15 PM 56.5813 -11.7165 97° East  Level FlightAware Approximate
Tue 11:27:15 PM 56.5657 -11.4872 97° East  Level FlightAware Approximate
Tue 11:28:15 PM 56.5496 -11.2580 97° East  Level FlightAware Approximate
Tue 11:29:15 PM 56.5331 -11.0291 98° East  Level FlightAware Approximate
Tue 11:30:15 PM 56.5162 -10.8004 98° East  Level FlightAware Approximate
Tue 11:31:15 PM 56.4988 -10.5718 98° East  Level FlightAware Approximate
Tue 11:32:15 PM 56.4811 -10.3435 98° East  Level FlightAware Approximate
Tue 11:33:15 PM 56.4629 -10.1154 76° East  Level FlightAware Approximate
Tue 11:34:15 PM 56.4916 -9.9042 99° East  Level FlightAware Approximate
Tue 11:35:15 PM 56.4722 -9.6764 99° East  Level FlightAware Approximate
Tue 11:36:15 PM 56.4524 -9.4488 99° East  Level FlightAware Approximate
Tue 11:37:15 PM 56.4322 -9.2214 99° East  Level FlightAware Approximate
Tue 11:38:15 PM 56.4115 -8.9943 102° East  Level FlightAware Approximate
Tue 11:39:15 PM 56.3851 -8.7695 99° East  Level FlightAware Approximate
Tue 11:40:15 PM 56.3656 -8.5424 99° East  Level FlightAware Approximate
Tue 11:41:15 PM 56.3456 -8.3155 99° East  Level FlightAware Approximate
Tue 11:42:15 PM 56.3252 -8.0888 99° East  Level FlightAware Approximate
Tue 11:43:15 PM 56.3044 -7.8624 99° East  Level FlightAware Approximate
Tue 11:44:15 PM 56.2832 -7.6362 100° East  Level FlightAware Approximate
Tue 11:45:15 PM 56.2616 -7.4103 112° Southeast  Level FlightAware Approximate
Tue 11:46:15 PM 56.2145 -7.1978 99° East  Level FlightAware Approximate
Tue 11:47:15 PM 56.1938 -6.9720 99° East  Level FlightAware Approximate
Tue 11:48:15 PM 56.1727 -6.7465 100° East  Level FlightAware Approximate
Tue 11:49:15 PM 56.1513 -6.5211 100° East  Level FlightAware Approximate
Tue 11:50:15 PM 56.1294 -6.2961 100° East  Level FlightAware Approximate
Tue 11:51:15 PM 56.1071 -6.0713 100° East  Level FlightAware Approximate
Tue 11:52:15 PM 56.0844 -5.8467 100° East  Level FlightAware Approximate
Tue 11:53:15 PM 56.0613 -5.6224 101° East  Level FlightAware Approximate
Tue 11:54:15 PM 56.0378 -5.3984 126° Southeast  Level FlightAware Approximate
Tue 11:55:15 PM 55.9642 -5.2147 100° East  Level FlightAware Approximate
Tue 11:56:15 PM 55.9417 -4.9909 105° East  Level FlightAware Approximate
Tue 11:57:15 PM 55.9087 -4.7775 100° East  Level FlightAware Approximate
Tue 11:58:15 PM 55.8857 -4.5542 103° East  Level FlightAware Approximate
Tue 11:59:15 PM 55.8559 -4.3338 101° East  Level FlightAware Approximate
Wed 12:00:15 AM 55.8323 -4.1110 101° East  Level FlightAware Approximate
Wed 12:01:15 AM 55.8082 -3.8886 101° East  Level FlightAware Approximate
Wed 12:02:15 AM 55.7837 -3.6663 101° East  Level FlightAware Approximate
Wed 12:03:15 AM 55.7589 -3.4444 101° East  Level FlightAware Approximate
Wed 12:04:15 AM 55.7336 -3.2227 102° East  Level FlightAware Approximate
Wed 12:05:15 AM 55.7079 -3.0014 103° East  Level FlightAware Approximate
Wed 12:06:15 AM 55.6791 -2.7819 102° East  Level FlightAware Approximate
Wed 12:07:15 AM 55.6527 -2.5612 102° East  Level FlightAware Approximate
Wed 12:08:15 AM 55.6260 -2.3407 102° East  Level FlightAware Approximate
Wed 12:09:15 AM 55.5988 -2.1205 102° East  Level FlightAware Approximate
Wed 12:10:15 AM 55.5712 -1.9006 103° East  Level FlightAware Approximate
Wed 12:11:15 AM 55.5433 -1.6810 103° East  Level FlightAware Approximate
Wed 12:12:15 AM 55.5149 -1.4618 103° East  Level FlightAware Approximate
Wed 12:13:15 AM 55.4862 -1.2429 99° East  Level FlightAware Approximate
Wed 12:14:15 AM 55.4650 -1.0214 103° East  Level FlightAware Approximate
Wed 12:15:15 AM 55.4357 -0.8030 103° East  Level FlightAware Approximate
Wed 12:16:15 AM 55.4060 -0.5849 104° East  Level FlightAware Approximate
Wed 12:17:15 AM 55.3758 -0.3672 104° East  Level FlightAware Approximate
Wed 12:18:15 AM 55.3453 -0.1498 104° East  Level FlightAware Approximate
Wed 12:19:15 AM 55.3144 0.0673 104° East  Level FlightAware Approximate
Wed 12:20:15 AM 55.2831 0.2841 104° East  Level FlightAware Approximate
Wed 12:21:15 AM 55.2515 0.5005 104° East  Level FlightAware Approximate
Wed 12:22:15 AM 55.2194 0.7165 105° East  Level FlightAware Approximate
Wed 12:23:15 AM 55.1870 0.9322 105° East  Level FlightAware Approximate
Wed 12:24:15 AM 55.1542 1.1475 105° East  Level FlightAware Approximate
Wed 12:25:15 AM 55.1210 1.3625 107° East  Level FlightAware Approximate
Wed 12:26:15 AM 55.0828 1.5746 105° East  Level FlightAware Approximate
Wed 12:27:15 AM 55.0489 1.7889 106° East  Level FlightAware Approximate
Wed 12:28:15 AM 55.0146 2.0028 106° East  Level FlightAware Approximate
Wed 12:29:15 AM 54.9800 2.2163 106° East  Level FlightAware Approximate
Wed 12:30:15 AM 54.9449 2.4295 106° East  Level FlightAware Approximate
Wed 12:31:15 AM 54.9095 2.6423 106° East  Level FlightAware Approximate
Wed 12:32:15 AM 54.8738 2.8547 106° East  Level FlightAware Approximate
Wed 12:33:15 AM 54.8377 3.0667 107° East  Level FlightAware Approximate
Wed 12:34:15 AM 54.8012 3.2784 107° East  Level FlightAware Approximate
Wed 12:35:15 AM 54.7643 3.4897 107° East  Level FlightAware Approximate
Wed 12:36:15 AM 54.7271 3.7006 107° East  Level FlightAware Approximate
Wed 12:37:15 AM 54.6895 3.9111 107° East  Level FlightAware Approximate
Wed 12:38:15 AM 54.6515 4.1212 107° East  Level FlightAware Approximate
Wed 12:39:15 AM 54.6132 4.3309 111° Southeast  Level FlightAware Approximate
Wed 12:40:15 AM 54.5664 4.5352 108° East  Level FlightAware Approximate
Wed 12:41:15 AM 54.5278 4.7443 108° East  Level FlightAware Approximate
Wed 12:42:15 AM 54.4888 4.9530 108° East  Level FlightAware Approximate
Wed 12:43:15 AM 54.4495 5.1613 108° East  Level FlightAware Approximate
Wed 12:44:15 AM 54.4099 5.3693 103° East  Level FlightAware Approximate
Wed 12:45:15 AM 54.3807 5.5812 109° East  Level FlightAware Approximate
Wed 12:46:15 AM 54.3397 5.7880 109° East  Level FlightAware Approximate
Wed 12:47:15 AM 54.2983 5.9944 109° East  Level FlightAware Approximate
Wed 12:48:15 AM 54.2566 6.2004 109° East  Level FlightAware Approximate
Wed 12:49:15 AM 54.2146 6.4060 109° East  Level FlightAware Approximate
Wed 12:50:15 AM 54.1721 6.6111 110° East  Level FlightAware Approximate
Wed 12:51:15 AM 54.1292 6.8157 110° East  Level FlightAware Approximate
Wed 12:52:15 AM 54.0862 7.0201 110° East  Level FlightAware Approximate
Wed 12:53:15 AM 54.0428 7.2240 110° East  Level FlightAware Approximate
Wed 12:54:15 AM 53.9991 7.4275 110° East  Level FlightAware Approximate
Wed 12:55:15 AM 53.9550 7.6305 110° East  Level FlightAware Approximate
Wed 12:56:15 AM 53.9106 7.8331 111° Southeast  Level FlightAware Approximate
Wed 12:57:15 AM 53.8658 8.0353 111° Southeast  Level FlightAware Approximate
Wed 12:58:15 AM 53.8208 8.2371 111° Southeast  Level FlightAware Approximate
Wed 12:59:15 AM 53.7753 8.4384 111° Southeast  Level FlightAware Approximate
Wed 01:00:15 AM 53.7296 8.6393 111° Southeast  Level FlightAware Approximate
Wed 01:01:15 AM 53.6835 8.8398 111° Southeast  Level FlightAware Approximate
Wed 01:02:15 AM 53.6370 9.0398 111° Southeast  Level FlightAware Approximate
Wed 01:03:15 AM 53.5903 9.2394 112° Southeast  Level FlightAware Approximate
Wed 01:04:15 AM 53.5414 9.4373 111° Southeast  Level FlightAware Approximate
Wed 01:05:15 AM 53.4957 9.6371 112° Southeast  Level FlightAware Approximate
Wed 01:06:15 AM 53.4480 9.8353 109° East  Level FlightAware Approximate
Wed 01:07:15 AM 53.4063 10.0364 112° Southeast  Level FlightAware Approximate
Wed 01:08:15 AM 53.3576 10.2335 114° Southeast  Level FlightAware Approximate
Wed 01:09:15 AM 53.3057 10.4275 113° Southeast  Level FlightAware Approximate
Wed 01:10:15 AM 53.2562 10.6200 113° Southeast  Level FlightAware Approximate
Wed 01:11:15 AM 53.2067 10.8160 112° Southeast  Level FlightAware Approximate
Wed 01:12:15 AM 53.1600 11.0126 113° Southeast  Level FlightAware Approximate
Wed 01:13:15 AM 53.1096 11.2075 116° Southeast  Level FlightAware Approximate
Wed 01:14:15 AM 53.0547 11.3985 113° Southeast  Level FlightAware Approximate
Wed 01:15:15 AM 53.0042 11.5928 113° Southeast  Level FlightAware Approximate
Wed 01:16:15 AM 52.9534 11.7866 114° Southeast  Level FlightAware Approximate
Wed 01:17:15 AM 52.9022 11.9800 110° East  Level FlightAware Approximate
Wed 01:18:15 AM 52.8583 12.1776 114° Southeast  Level FlightAware Approximate
Wed 01:19:15 AM 52.8054 12.3692 115° Southeast  Level FlightAware Approximate
Wed 01:20:15 AM 52.7518 12.5600 118° Southeast  Level FlightAware Approximate
Wed 01:21:15 AM 52.6916 12.7444 112° Southeast  Level FlightAware Approximate
Wed 01:22:15 AM 52.6436 12.9384 115° Southeast  Level FlightAware Approximate
Wed 01:23:15 AM 52.5901 13.1262 113° Southeast  Level FlightAware Approximate
Wed 01:24:15 AM 52.5500 13.2833 15° North  Level FlightAware Approximate
Wed 01:25:15 AM 52.6727 13.3390 195° South  Level Estimated
Wed 01:26:15 AM 52.5500 13.2833 15° North  Level Estimated
Wed 01:27:15 AM 52.6727 13.3390 195° South  Level Estimated
Wed 01:28:15 AM 52.5500 13.2833 15° North  Level Estimated
Wed 01:29:15 AM 52.6727 13.3390 195° South  Level Estimated
Wed 01:30:15 AM 52.5500 13.2833 360° North  Level Estimated
Wed 01:31:15 AM 52.5500 13.2833 15° North  Level FlightAware Approximate
Wed 01:32:15 AM 52.6727 13.3390 195° South  Level Estimated
Wed 01:33:15 AM 52.5500 13.2833 15° North  Level FlightAware Approximate
Wed 01:34:15 AM 52.6727 13.3390 195° South  Level Estimated
Wed 01:35:15 AM 52.5500 13.2833 15° North  Level FlightAware Approximate
Wed 01:36:15 AM 52.6727 13.3390 195° South  Level Estimated
Wed 01:37:15 AM 52.5500 13.2833 15° North  Level FlightAware Approximate
Wed 01:38:15 AM 52.6727 13.3390 195° South  Level Estimated
Wed 01:39:15 AM 52.5500 13.2833 15° North  Level FlightAware Approximate
Wed 01:40:15 AM 52.6727 13.3390 195° South  Level Estimated
Wed 01:41:15 AM 52.5500 13.2833 15° North  Level FlightAware Approximate
Wed 01:42:15 AM 52.6727 13.3390 195° South  Level Estimated
Wed 01:43:15 AM 52.5500 13.2833 15° North  Level FlightAware Approximate
Wed 01:44:15 AM 52.6727 13.3390 195° South  Level Estimated
Wed 01:45:15 AM 52.5500 13.2833 15° North  Level FlightAware Approximate
Wed 01:46:15 AM 52.6727 13.3390 195° South  Level Estimated
Wed 01:47:15 AM 52.5500 13.2833 195° South  Level FlightAware Approximate

Login

Don't have an account? Register now (free) for customized features, flight alerts, and more!